sensor_id;sensor_type;location;lat;lon;timestamp;P1;durP1;ratioP1;P2;durP2;ratioP2
16093;SDS011;8151;47.824;12.092;2024-03-02T00:02:09;20.50;;;10.87;;
16093;SDS011;8151;47.824;12.092;2024-03-02T00:04:40;15.33;;;9.53;;
16093;SDS011;8151;47.824;12.092;2024-03-02T00:07:10;17.30;;;10.27;;
16093;SDS011;8151;47.824;12.092;2024-03-02T00:09:43;16.47;;;10.87;;
16093;SDS011;8151;47.824;12.092;2024-03-02T00:12:13;15.13;;;9.80;;
16093;SDS011;8151;47.824;12.092;2024-03-02T00:14:47;18.17;;;10.53;;
16093;SDS011;8151;47.824;12.092;2024-03-02T00:17:17;19.40;;;11.07;;
16093;SDS011;8151;47.824;12.092;2024-03-02T00:19:52;17.77;;;10.50;;
16093;SDS011;8151;47.824;12.092;2024-03-02T00:22:20;19.33;;;11.07;;
16093;SDS011;8151;47.824;12.092;2024-03-02T00:24:50;15.43;;;10.67;;
16093;SDS011;8151;47.824;12.092;2024-03-02T00:27:19;22.93;;;10.10;;
16093;SDS011;8151;47.824;12.092;2024-03-02T00:29:48;15.27;;;9.00;;
16093;SDS011;8151;47.824;12.092;2024-03-02T00:32:16;14.03;;;9.30;;
16093;SDS011;8151;47.824;12.092;2024-03-02T00:34:45;14.37;;;8.77;;
16093;SDS011;8151;47.824;12.092;2024-03-02T00:37:13;18.77;;;10.07;;
16093;SDS011;8151;47.824;12.092;2024-03-02T00:39:42;14.80;;;9.77;;
16093;SDS011;8151;47.824;12.092;2024-03-02T00:42:12;17.93;;;9.90;;
16093;SDS011;8151;47.824;12.092;2024-03-02T00:44:40;19.03;;;9.53;;
16093;SDS011;8151;47.824;12.092;2024-03-02T00:47:09;14.33;;;9.27;;
16093;SDS011;8151;47.824;12.092;2024-03-02T00:49:37;14.83;;;8.63;;
16093;SDS011;8151;47.824;12.092;2024-03-02T00:52:07;15.60;;;8.73;;
16093;SDS011;8151;47.824;12.092;2024-03-02T00:54:36;12.73;;;8.00;;
16093;SDS011;8151;47.824;12.092;2024-03-02T00:57:06;14.97;;;8.73;;
16093;SDS011;8151;47.824;12.092;2024-03-02T00:59:39;13.60;;;8.90;;
16093;SDS011;8151;47.824;12.092;2024-03-02T01:02:08;16.87;;;9.60;;
16093;SDS011;8151;47.824;12.092;2024-03-02T01:04:36;14.37;;;9.40;;
16093;SDS011;8151;47.824;12.092;2024-03-02T01:07:05;15.27;;;9.07;;
16093;SDS011;8151;47.824;12.092;2024-03-02T01:09:33;15.10;;;9.37;;
16093;SDS011;8151;47.824;12.092;2024-03-02T01:12:02;18.97;;;9.23;;
16093;SDS011;8151;47.824;12.092;2024-03-02T01:14:32;12.27;;;8.73;;
16093;SDS011;8151;47.824;12.092;2024-03-02T01:17:00;15.07;;;9.10;;
16093;SDS011;8151;47.824;12.092;2024-03-02T01:19:30;12.90;;;8.40;;
16093;SDS011;8151;47.824;12.092;2024-03-02T01:21:59;13.60;;;9.23;;
16093;SDS011;8151;47.824;12.092;2024-03-02T01:24:27;13.03;;;9.07;;
16093;SDS011;8151;47.824;12.092;2024-03-02T01:26:56;13.83;;;9.37;;
16093;SDS011;8151;47.824;12.092;2024-03-02T01:29:24;15.67;;;8.50;;
16093;SDS011;8151;47.824;12.092;2024-03-02T01:31:54;13.80;;;8.87;;
16093;SDS011;8151;47.824;12.092;2024-03-02T01:34:22;12.47;;;6.93;;
16093;SDS011;8151;47.824;12.092;2024-03-02T01:36:50;14.03;;;8.20;;
16093;SDS011;8151;47.824;12.092;2024-03-02T01:39:19;13.73;;;8.60;;
16093;SDS011;8151;47.824;12.092;2024-03-02T01:41:47;10.47;;;7.40;;
16093;SDS011;8151;47.824;12.092;2024-03-02T01:44:16;14.17;;;8.40;;
16093;SDS011;8151;47.824;12.092;2024-03-02T01:46:45;11.90;;;8.40;;
16093;SDS011;8151;47.824;12.092;2024-03-02T01:49:14;14.60;;;8.40;;
16093;SDS011;8151;47.824;12.092;2024-03-02T01:51:43;14.70;;;8.20;;
16093;SDS011;8151;47.824;12.092;2024-03-02T01:54:18;11.00;;;7.33;;
16093;SDS011;8151;47.824;12.092;2024-03-02T01:56:50;11.43;;;7.83;;
16093;SDS011;8151;47.824;12.092;2024-03-02T01:59:19;11.77;;;7.53;;
16093;SDS011;8151;47.824;12.092;2024-03-02T02:01:49;13.70;;;8.13;;
16093;SDS011;8151;47.824;12.092;2024-03-02T02:04:20;11.07;;;7.50;;
16093;SDS011;8151;47.824;12.092;2024-03-02T02:06:54;12.00;;;7.10;;
16093;SDS011;8151;47.824;12.092;2024-03-02T02:09:22;15.40;;;8.07;;
16093;SDS011;8151;47.824;12.092;2024-03-02T02:11:51;10.93;;;6.93;;
16093;SDS011;8151;47.824;12.092;2024-03-02T02:14:20;10.00;;;7.43;;
16093;SDS011;8151;47.824;12.092;2024-03-02T02:16:48;13.80;;;7.73;;
16093;SDS011;8151;47.824;12.092;2024-03-02T02:19:20;12.97;;;7.90;;
16093;SDS011;8151;47.824;12.092;2024-03-02T02:21:50;15.13;;;7.40;;
16093;SDS011;8151;47.824;12.092;2024-03-02T02:24:18;12.97;;;7.73;;
16093;SDS011;8151;47.824;12.092;2024-03-02T02:26:47;11.63;;;7.43;;
16093;SDS011;8151;47.824;12.092;2024-03-02T02:29:15;13.83;;;7.77;;
16093;SDS011;8151;47.824;12.092;2024-03-02T02:31:44;11.63;;;8.27;;
16093;SDS011;8151;47.824;12.092;2024-03-02T02:34:13;11.60;;;7.40;;
16093;SDS011;8151;47.824;12.092;2024-03-02T02:36:42;14.10;;;7.90;;
16093;SDS011;8151;47.824;12.092;2024-03-02T02:39:13;12.53;;;7.93;;
16093;SDS011;8151;47.824;12.092;2024-03-02T02:41:44;14.90;;;9.00;;
16093;SDS011;8151;47.824;12.092;2024-03-02T02:44:12;15.43;;;8.80;;
16093;SDS011;8151;47.824;12.092;2024-03-02T02:46:41;15.90;;;9.07;;
16093;SDS011;8151;47.824;12.092;2024-03-02T02:49:09;14.30;;;9.27;;
16093;SDS011;8151;47.824;12.092;2024-03-02T02:51:37;14.77;;;9.20;;
16093;SDS011;8151;47.824;12.092;2024-03-02T02:54:06;14.43;;;8.87;;
16093;SDS011;8151;47.824;12.092;2024-03-02T02:56:35;14.60;;;9.60;;
16093;SDS011;8151;47.824;12.092;2024-03-02T02:59:04;17.63;;;9.47;;
16093;SDS011;8151;47.824;12.092;2024-03-02T03:01:32;15.47;;;9.50;;
16093;SDS011;8151;47.824;12.092;2024-03-02T03:04:01;15.37;;;8.33;;
16093;SDS011;8151;47.824;12.092;2024-03-02T03:06:29;19.03;;;9.73;;
16093;SDS011;8151;47.824;12.092;2024-03-02T03:08:58;14.20;;;9.27;;
16093;SDS011;8151;47.824;12.092;2024-03-02T03:11:27;16.07;;;8.87;;
16093;SDS011;8151;47.824;12.092;2024-03-02T03:13:56;14.60;;;9.10;;
16093;SDS011;8151;47.824;12.092;2024-03-02T03:16:27;13.07;;;8.70;;
16093;SDS011;8151;47.824;12.092;2024-03-02T03:18:55;13.57;;;9.30;;
16093;SDS011;8151;47.824;12.092;2024-03-02T03:21:24;14.20;;;9.03;;
16093;SDS011;8151;47.824;12.092;2024-03-02T03:23:52;15.80;;;9.20;;
16093;SDS011;8151;47.824;12.092;2024-03-02T03:26:22;16.57;;;9.70;;
16093;SDS011;8151;47.824;12.092;2024-03-02T03:28:50;16.13;;;9.33;;
16093;SDS011;8151;47.824;12.092;2024-03-02T03:31:20;13.43;;;9.00;;
16093;SDS011;8151;47.824;12.092;2024-03-02T03:33:48;14.37;;;9.13;;
16093;SDS011;8151;47.824;12.092;2024-03-02T03:36:17;14.93;;;9.33;;
16093;SDS011;8151;47.824;12.092;2024-03-02T03:38:48;16.47;;;9.87;;
16093;SDS011;8151;47.824;12.092;2024-03-02T03:41:19;16.77;;;10.27;;
16093;SDS011;8151;47.824;12.092;2024-03-02T03:43:47;14.43;;;9.87;;
16093;SDS011;8151;47.824;12.092;2024-03-02T03:46:16;20.40;;;9.03;;
16093;SDS011;8151;47.824;12.092;2024-03-02T03:48:45;13.83;;;7.83;;
16093;SDS011;8151;47.824;12.092;2024-03-02T03:51:14;21.07;;;8.67;;
16093;SDS011;8151;47.824;12.092;2024-03-02T03:53:42;12.50;;;7.77;;
16093;SDS011;8151;47.824;12.092;2024-03-02T03:56:12;12.97;;;8.20;;
16093;SDS011;8151;47.824;12.092;2024-03-02T03:58:41;15.00;;;8.70;;
16093;SDS011;8151;47.824;12.092;2024-03-02T04:01:09;12.50;;;7.90;;
16093;SDS011;8151;47.824;12.092;2024-03-02T04:03:38;11.57;;;7.70;;
16093;SDS011;8151;47.824;12.092;2024-03-02T04:06:08;10.93;;;8.17;;
16093;SDS011;8151;47.824;12.092;2024-03-02T04:08:37;9.30;;;7.20;;
16093;SDS011;8151;47.824;12.092;2024-03-02T04:11:06;9.50;;;7.20;;
16093;SDS011;8151;47.824;12.092;2024-03-02T04:13:35;17.70;;;7.47;;
16093;SDS011;8151;47.824;12.092;2024-03-02T04:16:03;10.23;;;7.47;;
16093;SDS011;8151;47.824;12.092;2024-03-02T04:18:32;14.13;;;7.77;;
16093;SDS011;8151;47.824;12.092;2024-03-02T04:21:02;11.53;;;8.20;;
16093;SDS011;8151;47.824;12.092;2024-03-02T04:23:32;11.10;;;8.03;;
16093;SDS011;8151;47.824;12.092;2024-03-02T04:26:00;15.77;;;8.23;;
16093;SDS011;8151;47.824;12.092;2024-03-02T04:28:30;12.77;;;8.53;;
16093;SDS011;8151;47.824;12.092;2024-03-02T04:30:58;11.10;;;8.17;;
16093;SDS011;8151;47.824;12.092;2024-03-02T04:33:27;13.27;;;9.33;;
16093;SDS011;8151;47.824;12.092;2024-03-02T04:35:56;11.67;;;8.00;;
16093;SDS011;8151;47.824;12.092;2024-03-02T04:38:25;14.70;;;8.43;;
16093;SDS011;8151;47.824;12.092;2024-03-02T04:40:55;10.03;;;7.40;;
16093;SDS011;8151;47.824;12.092;2024-03-02T04:43:24;15.17;;;6.80;;
16093;SDS011;8151;47.824;12.092;2024-03-02T04:45:52;12.03;;;6.83;;
16093;SDS011;8151;47.824;12.092;2024-03-02T04:48:20;11.77;;;6.27;;
16093;SDS011;8151;47.824;12.092;2024-03-02T04:50:49;8.00;;;6.67;;
16093;SDS011;8151;47.824;12.092;2024-03-02T04:53:17;7.47;;;6.07;;
16093;SDS011;8151;47.824;12.092;2024-03-02T04:55:46;9.10;;;6.93;;
16093;SDS011;8151;47.824;12.092;2024-03-02T04:58:47;13.13;;;8.87;;
16093;SDS011;8151;47.824;12.092;2024-03-02T05:01:16;6.73;;;5.90;;
16093;SDS011;8151;47.824;12.092;2024-03-02T05:03:44;7.60;;;5.80;;
16093;SDS011;8151;47.824;12.092;2024-03-02T05:06:13;7.03;;;6.00;;
16093;SDS011;8151;47.824;12.092;2024-03-02T05:08:41;7.63;;;6.30;;
16093;SDS011;8151;47.824;12.092;2024-03-02T05:11:11;6.87;;;6.13;;
16093;SDS011;8151;47.824;12.092;2024-03-02T05:13:59;6.43;;;5.50;;
16093;SDS011;8151;47.824;12.092;2024-03-02T05:16:27;8.77;;;6.67;;
16093;SDS011;8151;47.824;12.092;2024-03-02T05:18:56;9.00;;;6.73;;
16093;SDS011;8151;47.824;12.092;2024-03-02T05:21:24;9.03;;;7.00;;
16093;SDS011;8151;47.824;12.092;2024-03-02T05:23:52;10.80;;;6.87;;
16093;SDS011;8151;47.824;12.092;2024-03-02T05:26:21;12.73;;;7.57;;
16093;SDS011;8151;47.824;12.092;2024-03-02T05:28:49;10.23;;;6.93;;
16093;SDS011;8151;47.824;12.092;2024-03-02T05:31:19;11.67;;;8.07;;
16093;SDS011;8151;47.824;12.092;2024-03-02T05:33:48;14.53;;;9.33;;
16093;SDS011;8151;47.824;12.092;2024-03-02T05:36:21;13.03;;;8.03;;
16093;SDS011;8151;47.824;12.092;2024-03-02T05:38:50;13.97;;;8.33;;
16093;SDS011;8151;47.824;12.092;2024-03-02T05:41:18;12.67;;;8.47;;
16093;SDS011;8151;47.824;12.092;2024-03-02T05:43:47;14.80;;;9.33;;
16093;SDS011;8151;47.824;12.092;2024-03-02T05:46:16;13.77;;;8.97;;
16093;SDS011;8151;47.824;12.092;2024-03-02T05:48:46;14.43;;;9.57;;
16093;SDS011;8151;47.824;12.092;2024-03-02T05:51:14;13.77;;;9.63;;
16093;SDS011;8151;47.824;12.092;2024-03-02T05:53:43;14.30;;;9.73;;
16093;SDS011;8151;47.824;12.092;2024-03-02T05:56:11;14.37;;;9.00;;
16093;SDS011;8151;47.824;12.092;2024-03-02T05:58:40;12.07;;;8.17;;
16093;SDS011;8151;47.824;12.092;2024-03-02T06:01:24;11.00;;;7.33;;
16093;SDS011;8151;47.824;12.092;2024-03-02T06:03:57;10.43;;;7.80;;
16093;SDS011;8151;47.824;12.092;2024-03-02T06:06:25;8.90;;;6.90;;
16093;SDS011;8151;47.824;12.092;2024-03-02T06:08:56;10.60;;;7.10;;
16093;SDS011;8151;47.824;12.092;2024-03-02T06:11:25;10.50;;;6.87;;
16093;SDS011;8151;47.824;12.092;2024-03-02T06:13:54;11.77;;;7.07;;
16093;SDS011;8151;47.824;12.092;2024-03-02T06:16:22;10.33;;;7.70;;
16093;SDS011;8151;47.824;12.092;2024-03-02T06:18:51;10.53;;;7.87;;
16093;SDS011;8151;47.824;12.092;2024-03-02T06:21:22;12.30;;;8.33;;
16093;SDS011;8151;47.824;12.092;2024-03-02T06:23:50;13.07;;;9.43;;
16093;SDS011;8151;47.824;12.092;2024-03-02T06:26:19;12.40;;;8.37;;
16093;SDS011;8151;47.824;12.092;2024-03-02T06:28:51;16.20;;;9.43;;
16093;SDS011;8151;47.824;12.092;2024-03-02T06:31:20;17.30;;;10.13;;
16093;SDS011;8151;47.824;12.092;2024-03-02T06:33:48;16.70;;;11.23;;
16093;SDS011;8151;47.824;12.092;2024-03-02T06:36:17;20.23;;;12.90;;
16093;SDS011;8151;47.824;12.092;2024-03-02T06:38:47;19.00;;;12.30;;
16093;SDS011;8151;47.824;12.092;2024-03-02T06:41:15;18.40;;;11.27;;
16093;SDS011;8151;47.824;12.092;2024-03-02T06:43:43;17.97;;;12.20;;
16093;SDS011;8151;47.824;12.092;2024-03-02T06:46:12;18.13;;;10.87;;
16093;SDS011;8151;47.824;12.092;2024-03-02T06:48:42;16.73;;;10.63;;
16093;SDS011;8151;47.824;12.092;2024-03-02T06:51:10;17.03;;;10.60;;
16093;SDS011;8151;47.824;12.092;2024-03-02T06:53:38;19.60;;;11.53;;
16093;SDS011;8151;47.824;12.092;2024-03-02T06:56:08;18.30;;;11.53;;
16093;SDS011;8151;47.824;12.092;2024-03-02T06:58:37;18.90;;;12.50;;
16093;SDS011;8151;47.824;12.092;2024-03-02T07:01:05;20.13;;;12.10;;
16093;SDS011;8151;47.824;12.092;2024-03-02T07:03:33;20.10;;;12.27;;
16093;SDS011;8151;47.824;12.092;2024-03-02T07:06:02;26.03;;;11.20;;
16093;SDS011;8151;47.824;12.092;2024-03-02T07:08:31;17.93;;;11.63;;
16093;SDS011;8151;47.824;12.092;2024-03-02T07:10:59;18.93;;;11.77;;
16093;SDS011;8151;47.824;12.092;2024-03-02T07:13:29;20.00;;;12.33;;
16093;SDS011;8151;47.824;12.092;2024-03-02T07:15:58;20.17;;;12.43;;
16093;SDS011;8151;47.824;12.092;2024-03-02T07:18:49;22.40;;;12.00;;
16093;SDS011;8151;47.824;12.092;2024-03-02T07:21:19;18.63;;;11.47;;
16093;SDS011;8151;47.824;12.092;2024-03-02T07:23:49;20.23;;;12.17;;
16093;SDS011;8151;47.824;12.092;2024-03-02T07:26:20;21.93;;;12.47;;
16093;SDS011;8151;47.824;12.092;2024-03-02T07:28:54;19.67;;;12.57;;
16093;SDS011;8151;47.824;12.092;2024-03-02T07:31:22;18.53;;;12.27;;
16093;SDS011;8151;47.824;12.092;2024-03-02T07:33:51;20.20;;;12.57;;
16093;SDS011;8151;47.824;12.092;2024-03-02T07:36:19;16.90;;;11.70;;
16093;SDS011;8151;47.824;12.092;2024-03-02T07:38:48;20.73;;;13.03;;
16093;SDS011;8151;47.824;12.092;2024-03-02T07:41:17;20.60;;;12.87;;
16093;SDS011;8151;47.824;12.092;2024-03-02T07:43:46;19.60;;;12.57;;
16093;SDS011;8151;47.824;12.092;2024-03-02T07:46:16;18.60;;;11.90;;
16093;SDS011;8151;47.824;12.092;2024-03-02T07:48:45;18.60;;;11.77;;
16093;SDS011;8151;47.824;12.092;2024-03-02T07:51:14;15.37;;;10.27;;
16093;SDS011;8151;47.824;12.092;2024-03-02T07:53:43;18.63;;;10.80;;
16093;SDS011;8151;47.824;12.092;2024-03-02T07:56:13;17.40;;;10.73;;
16093;SDS011;8151;47.824;12.092;2024-03-02T07:58:48;18.43;;;11.37;;
16093;SDS011;8151;47.824;12.092;2024-03-02T08:01:18;19.43;;;11.43;;
16093;SDS011;8151;47.824;12.092;2024-03-02T08:03:47;19.47;;;10.60;;
16093;SDS011;8151;47.824;12.092;2024-03-02T08:06:17;16.80;;;12.03;;
16093;SDS011;8151;47.824;12.092;2024-03-02T08:08:50;19.53;;;11.67;;
16093;SDS011;8151;47.824;12.092;2024-03-02T08:11:19;17.83;;;11.20;;
16093;SDS011;8151;47.824;12.092;2024-03-02T08:13:47;20.23;;;12.63;;
16093;SDS011;8151;47.824;12.092;2024-03-02T08:16:18;15.90;;;10.73;;
16093;SDS011;8151;47.824;12.092;2024-03-02T08:18:47;17.57;;;11.30;;
16093;SDS011;8151;47.824;12.092;2024-03-02T08:21:16;18.07;;;11.57;;
16093;SDS011;8151;47.824;12.092;2024-03-02T08:23:47;20.57;;;11.20;;
16093;SDS011;8151;47.824;12.092;2024-03-02T08:26:16;15.10;;;10.57;;
16093;SDS011;8151;47.824;12.092;2024-03-02T08:28:44;23.43;;;11.23;;
16093;SDS011;8151;47.824;12.092;2024-03-02T08:31:13;18.63;;;11.53;;
16093;SDS011;8151;47.824;12.092;2024-03-02T08:33:43;25.87;;;11.23;;
16093;SDS011;8151;47.824;12.092;2024-03-02T08:36:11;17.57;;;10.70;;
16093;SDS011;8151;47.824;12.092;2024-03-02T08:38:42;22.90;;;11.60;;
16093;SDS011;8151;47.824;12.092;2024-03-02T08:41:11;20.73;;;11.70;;
16093;SDS011;8151;47.824;12.092;2024-03-02T08:43:40;17.53;;;10.97;;
16093;SDS011;8151;47.824;12.092;2024-03-02T08:46:10;16.70;;;9.87;;
16093;SDS011;8151;47.824;12.092;2024-03-02T08:48:38;18.47;;;11.00;;
16093;SDS011;8151;47.824;12.092;2024-03-02T08:51:08;19.07;;;11.90;;
16093;SDS011;8151;47.824;12.092;2024-03-02T08:53:40;19.13;;;10.70;;
16093;SDS011;8151;47.824;12.092;2024-03-02T08:56:11;22.10;;;11.93;;
16093;SDS011;8151;47.824;12.092;2024-03-02T08:58:43;16.97;;;10.17;;
16093;SDS011;8151;47.824;12.092;2024-03-02T09:01:14;19.87;;;11.47;;
16093;SDS011;8151;47.824;12.092;2024-03-02T09:03:43;16.23;;;10.70;;
16093;SDS011;8151;47.824;12.092;2024-03-02T09:06:13;16.13;;;10.00;;
16093;SDS011;8151;47.824;12.092;2024-03-02T09:08:43;17.13;;;10.13;;
16093;SDS011;8151;47.824;12.092;2024-03-02T09:11:12;17.53;;;10.23;;
16093;SDS011;8151;47.824;12.092;2024-03-02T09:13:40;17.87;;;11.17;;
16093;SDS011;8151;47.824;12.092;2024-03-02T09:16:09;18.43;;;11.50;;
16093;SDS011;8151;47.824;12.092;2024-03-02T09:18:38;22.67;;;13.77;;
16093;SDS011;8151;47.824;12.092;2024-03-02T09:21:07;28.43;;;16.30;;
16093;SDS011;8151;47.824;12.092;2024-03-02T09:23:37;29.03;;;17.47;;
16093;SDS011;8151;47.824;12.092;2024-03-02T09:26:07;26.50;;;16.13;;
16093;SDS011;8151;47.824;12.092;2024-03-02T09:28:35;21.80;;;12.90;;
16093;SDS011;8151;47.824;12.092;2024-03-02T09:31:03;23.77;;;13.13;;
16093;SDS011;8151;47.824;12.092;2024-03-02T09:33:32;22.20;;;13.87;;
16093;SDS011;8151;47.824;12.092;2024-03-02T09:36:01;24.10;;;13.03;;
16093;SDS011;8151;47.824;12.092;2024-03-02T09:38:30;14.83;;;10.30;;
16093;SDS011;8151;47.824;12.092;2024-03-02T09:41:01;23.63;;;13.50;;
16093;SDS011;8151;47.824;12.092;2024-03-02T09:43:30;17.43;;;10.93;;
16093;SDS011;8151;47.824;12.092;2024-03-02T09:45:59;20.13;;;12.07;;
16093;SDS011;8151;47.824;12.092;2024-03-02T09:48:28;16.33;;;11.17;;
16093;SDS011;8151;47.824;12.092;2024-03-02T09:50:56;17.87;;;12.43;;
16093;SDS011;8151;47.824;12.092;2024-03-02T09:53:25;18.87;;;12.53;;
16093;SDS011;8151;47.824;12.092;2024-03-02T09:56:00;20.27;;;11.33;;
16093;SDS011;8151;47.824;12.092;2024-03-02T09:58:29;17.67;;;10.70;;
16093;SDS011;8151;47.824;12.092;2024-03-02T10:00:57;17.43;;;10.17;;
16093;SDS011;8151;47.824;12.092;2024-03-02T10:03:26;16.03;;;10.37;;
16093;SDS011;8151;47.824;12.092;2024-03-02T10:05:56;18.83;;;11.20;;
16093;SDS011;8151;47.824;12.092;2024-03-02T10:08:48;18.53;;;10.70;;
16093;SDS011;8151;47.824;12.092;2024-03-02T10:11:28;17.83;;;11.10;;
16093;SDS011;8151;47.824;12.092;2024-03-02T10:14:04;20.13;;;11.03;;
16093;SDS011;8151;47.824;12.092;2024-03-02T10:16:35;22.63;;;13.70;;
16093;SDS011;8151;47.824;12.092;2024-03-02T10:21:51;21.97;;;13.33;;
16093;SDS011;8151;47.824;12.092;2024-03-02T10:24:22;23.90;;;11.87;;
16093;SDS011;8151;47.824;12.092;2024-03-02T10:26:52;20.60;;;11.50;;
16093;SDS011;8151;47.824;12.092;2024-03-02T10:29:20;24.93;;;14.07;;
16093;SDS011;8151;47.824;12.092;2024-03-02T10:31:49;24.60;;;13.03;;
16093;SDS011;8151;47.824;12.092;2024-03-02T10:34:18;27.33;;;16.60;;
16093;SDS011;8151;47.824;12.092;2024-03-02T10:36:46;22.27;;;14.80;;
16093;SDS011;8151;47.824;12.092;2024-03-02T10:39:15;24.53;;;14.43;;
16093;SDS011;8151;47.824;12.092;2024-03-02T10:41:45;22.70;;;12.80;;
16093;SDS011;8151;47.824;12.092;2024-03-02T10:44:17;24.07;;;12.10;;
16093;SDS011;8151;47.824;12.092;2024-03-02T10:46:46;19.63;;;12.83;;
16093;SDS011;8151;47.824;12.092;2024-03-02T10:49:17;20.03;;;11.50;;
16093;SDS011;8151;47.824;12.092;2024-03-02T10:51:47;21.87;;;12.17;;
16093;SDS011;8151;47.824;12.092;2024-03-02T10:54:15;18.97;;;12.50;;
16093;SDS011;8151;47.824;12.092;2024-03-02T10:56:45;21.40;;;13.10;;
16093;SDS011;8151;47.824;12.092;2024-03-02T10:59:21;21.97;;;12.40;;
16093;SDS011;8151;47.824;12.092;2024-03-02T11:01:53;22.40;;;13.47;;
16093;SDS011;8151;47.824;12.092;2024-03-02T11:04:29;26.03;;;13.03;;
16093;SDS011;8151;47.824;12.092;2024-03-02T11:06:59;18.77;;;11.57;;
16093;SDS011;8151;47.824;12.092;2024-03-02T11:09:32;22.50;;;12.40;;
16093;SDS011;8151;47.824;12.092;2024-03-02T11:12:03;26.03;;;13.47;;
16093;SDS011;8151;47.824;12.092;2024-03-02T11:14:41;21.00;;;12.87;;
16093;SDS011;8151;47.824;12.092;2024-03-02T11:17:11;23.20;;;13.63;;
16093;SDS011;8151;47.824;12.092;2024-03-02T11:19:42;20.60;;;11.90;;
16093;SDS011;8151;47.824;12.092;2024-03-02T11:22:12;21.53;;;12.77;;
16093;SDS011;8151;47.824;12.092;2024-03-02T11:24:47;18.33;;;12.43;;
16093;SDS011;8151;47.824;12.092;2024-03-02T11:27:58;21.20;;;12.60;;
16093;SDS011;8151;47.824;12.092;2024-03-02T11:33:23;21.27;;;12.47;;
16093;SDS011;8151;47.824;12.092;2024-03-02T11:35:54;21.30;;;11.80;;
16093;SDS011;8151;47.824;12.092;2024-03-02T11:38:27;20.80;;;12.87;;
16093;SDS011;8151;47.824;12.092;2024-03-02T11:40:57;23.40;;;14.47;;
16093;SDS011;8151;47.824;12.092;2024-03-02T11:43:25;22.67;;;13.00;;
16093;SDS011;8151;47.824;12.092;2024-03-02T11:46:00;21.63;;;11.77;;
16093;SDS011;8151;47.824;12.092;2024-03-02T11:48:35;20.40;;;12.07;;
16093;SDS011;8151;47.824;12.092;2024-03-02T11:51:05;19.00;;;11.67;;
16093;SDS011;8151;47.824;12.092;2024-03-02T11:53:33;17.50;;;10.97;;
16093;SDS011;8151;47.824;12.092;2024-03-02T11:56:06;19.47;;;12.10;;
16093;SDS011;8151;47.824;12.092;2024-03-02T11:58:39;21.83;;;13.83;;
16093;SDS011;8151;47.824;12.092;2024-03-02T12:01:10;24.13;;;15.07;;
16093;SDS011;8151;47.824;12.092;2024-03-02T12:03:39;22.70;;;14.40;;
16093;SDS011;8151;47.824;12.092;2024-03-02T12:06:07;17.67;;;12.03;;
16093;SDS011;8151;47.824;12.092;2024-03-02T12:08:36;19.93;;;12.50;;
16093;SDS011;8151;47.824;12.092;2024-03-02T12:11:05;21.27;;;14.30;;
16093;SDS011;8151;47.824;12.092;2024-03-02T12:13:34;21.97;;;13.83;;
16093;SDS011;8151;47.824;12.092;2024-03-02T12:16:03;17.70;;;12.73;;
16093;SDS011;8151;47.824;12.092;2024-03-02T12:18:34;16.50;;;11.37;;
16093;SDS011;8151;47.824;12.092;2024-03-02T12:21:02;18.13;;;11.13;;
16093;SDS011;8151;47.824;12.092;2024-03-02T12:23:33;15.80;;;10.63;;
16093;SDS011;8151;47.824;12.092;2024-03-02T12:26:02;17.13;;;10.70;;
16093;SDS011;8151;47.824;12.092;2024-03-02T12:28:32;13.73;;;10.37;;
16093;SDS011;8151;47.824;12.092;2024-03-02T12:31:01;14.77;;;10.73;;
16093;SDS011;8151;47.824;12.092;2024-03-02T12:33:30;15.53;;;10.87;;
16093;SDS011;8151;47.824;12.092;2024-03-02T12:36:00;18.37;;;11.20;;
16093;SDS011;8151;47.824;12.092;2024-03-02T12:38:29;16.50;;;10.87;;
16093;SDS011;8151;47.824;12.092;2024-03-02T12:40:57;13.83;;;9.87;;
16093;SDS011;8151;47.824;12.092;2024-03-02T12:43:29;18.63;;;12.20;;
16093;SDS011;8151;47.824;12.092;2024-03-02T12:45:58;18.80;;;12.73;;
16093;SDS011;8151;47.824;12.092;2024-03-02T12:48:27;16.50;;;11.07;;
16093;SDS011;8151;47.824;12.092;2024-03-02T12:50:56;19.03;;;11.10;;
16093;SDS011;8151;47.824;12.092;2024-03-02T12:53:26;17.33;;;11.57;;
16093;SDS011;8151;47.824;12.092;2024-03-02T12:55:55;15.67;;;11.10;;
16093;SDS011;8151;47.824;12.092;2024-03-02T12:58:23;17.13;;;10.60;;
16093;SDS011;8151;47.824;12.092;2024-03-02T13:01:05;13.27;;;10.07;;
16093;SDS011;8151;47.824;12.092;2024-03-02T13:03:35;12.87;;;9.93;;
16093;SDS011;8151;47.824;12.092;2024-03-02T13:06:04;14.37;;;10.40;;
16093;SDS011;8151;47.824;12.092;2024-03-02T13:08:35;22.73;;;13.70;;
16093;SDS011;8151;47.824;12.092;2024-03-02T13:11:03;15.20;;;9.93;;
16093;SDS011;8151;47.824;12.092;2024-03-02T13:13:34;13.60;;;9.50;;
16093;SDS011;8151;47.824;12.092;2024-03-02T13:16:03;18.20;;;10.20;;
16093;SDS011;8151;47.824;12.092;2024-03-02T13:18:33;9.33;;;6.63;;
16093;SDS011;8151;47.824;12.092;2024-03-02T13:21:02;9.03;;;6.53;;
16093;SDS011;8151;47.824;12.092;2024-03-02T13:23:30;9.13;;;5.97;;
16093;SDS011;8151;47.824;12.092;2024-03-02T13:26:00;5.07;;;3.60;;
16093;SDS011;8151;47.824;12.092;2024-03-02T13:28:29;3.97;;;3.43;;
16093;SDS011;8151;47.824;12.092;2024-03-02T13:30:58;5.37;;;3.20;;
16093;SDS011;8151;47.824;12.092;2024-03-02T13:33:26;5.37;;;3.50;;
16093;SDS011;8151;47.824;12.092;2024-03-02T13:35:57;6.17;;;4.07;;
16093;SDS011;8151;47.824;12.092;2024-03-02T13:38:25;5.80;;;4.50;;
16093;SDS011;8151;47.824;12.092;2024-03-02T13:40:54;18.17;;;11.93;;
16093;SDS011;8151;47.824;12.092;2024-03-02T13:43:24;11.07;;;7.20;;
16093;SDS011;8151;47.824;12.092;2024-03-02T13:45:52;7.87;;;3.90;;
16093;SDS011;8151;47.824;12.092;2024-03-02T13:48:21;7.33;;;5.23;;
16093;SDS011;8151;47.824;12.092;2024-03-02T13:50:49;8.63;;;4.97;;
16093;SDS011;8151;47.824;12.092;2024-03-02T13:53:18;6.03;;;3.63;;
16093;SDS011;8151;47.824;12.092;2024-03-02T13:55:46;4.13;;;3.50;;
16093;SDS011;8151;47.824;12.092;2024-03-02T13:58:15;3.70;;;3.27;;
16093;SDS011;8151;47.824;12.092;2024-03-02T14:00:45;4.77;;;3.50;;
16093;SDS011;8151;47.824;12.092;2024-03-02T14:03:14;7.37;;;3.30;;
16093;SDS011;8151;47.824;12.092;2024-03-02T14:05:43;6.07;;;3.20;;
16093;SDS011;8151;47.824;12.092;2024-03-02T14:08:12;6.43;;;2.90;;
16093;SDS011;8151;47.824;12.092;2024-03-02T14:10:41;5.50;;;3.50;;
16093;SDS011;8151;47.824;12.092;2024-03-02T14:13:10;5.97;;;2.80;;
16093;SDS011;8151;47.824;12.092;2024-03-02T14:15:38;4.47;;;3.27;;
16093;SDS011;8151;47.824;12.092;2024-03-02T14:18:10;6.10;;;3.20;;
16093;SDS011;8151;47.824;12.092;2024-03-02T14:20:39;6.20;;;3.60;;
16093;SDS011;8151;47.824;12.092;2024-03-02T14:23:12;5.50;;;3.10;;
16093;SDS011;8151;47.824;12.092;2024-03-02T14:25:41;5.97;;;3.50;;
16093;SDS011;8151;47.824;12.092;2024-03-02T14:28:09;6.83;;;3.60;;
16093;SDS011;8151;47.824;12.092;2024-03-02T14:30:59;8.83;;;3.17;;
16093;SDS011;8151;47.824;12.092;2024-03-02T14:33:29;6.00;;;4.40;;
16093;SDS011;8151;47.824;12.092;2024-03-02T14:35:58;9.07;;;6.47;;
16093;SDS011;8151;47.824;12.092;2024-03-02T14:38:27;6.70;;;4.50;;
16093;SDS011;8151;47.824;12.092;2024-03-02T14:40:56;5.80;;;3.87;;
16093;SDS011;8151;47.824;12.092;2024-03-02T14:43:25;6.37;;;4.70;;
16093;SDS011;8151;47.824;12.092;2024-03-02T14:45:53;9.40;;;4.73;;
16093;SDS011;8151;47.824;12.092;2024-03-02T14:48:22;8.30;;;5.60;;
16093;SDS011;8151;47.824;12.092;2024-03-02T14:50:52;10.87;;;5.67;;
16093;SDS011;8151;47.824;12.092;2024-03-02T14:53:21;20.50;;;11.90;;